sensor_id;sensor_type;location;lat;lon;timestamp;temperature;humidity
62555;DHT22;48610;52.144;8.624;2023-10-09T00:03:20;13.90;99.90
62555;DHT22;48610;52.144;8.624;2023-10-09T00:06:23;14.00;99.90
62555;DHT22;48610;52.144;8.624;2023-10-09T00:09:31;13.90;99.90
62555;DHT22;48610;52.144;8.624;2023-10-09T00:12:32;13.70;99.90
62555;DHT22;48610;52.144;8.624;2023-10-09T00:15:33;13.50;99.90
62555;DHT22;48610;52.144;8.624;2023-10-09T00:18:34;13.50;99.90
62555;DHT22;48610;52.144;8.624;2023-10-09T00:21:35;13.40;99.90
62555;DHT22;48610;52.144;8.624;2023-10-09T00:24:38;13.40;99.90
62555;DHT22;48610;52.144;8.624;2023-10-09T00:27:46;13.50;99.90
62555;DHT22;48610;52.144;8.624;2023-10-09T00:30:46;13.50;99.90
62555;DHT22;48610;52.144;8.624;2023-10-09T00:33:47;13.60;99.90
62555;DHT22;48610;52.144;8.624;2023-10-09T00:36:48;13.20;99.90
62555;DHT22;48610;52.144;8.624;2023-10-09T00:39:52;13.30;99.90
62555;DHT22;48610;52.144;8.624;2023-10-09T00:42:56;13.40;99.90
62555;DHT22;48610;52.144;8.624;2023-10-09T00:45:59;13.70;99.90
62555;DHT22;48610;52.144;8.624;2023-10-09T00:49:04;13.70;99.90
62555;DHT22;48610;52.144;8.624;2023-10-09T00:52:10;13.50;99.90
62555;DHT22;48610;52.144;8.624;2023-10-09T00:55:19;13.10;99.90
62555;DHT22;48610;52.144;8.624;2023-10-09T00:58:50;13.30;99.90
62555;DHT22;48610;52.144;8.624;2023-10-09T01:02:08;13.40;99.90
62555;DHT22;48610;52.144;8.624;2023-10-09T01:05:10;13.50;99.90
62555;DHT22;48610;52.144;8.624;2023-10-09T01:08:19;13.50;99.90
62555;DHT22;48610;52.144;8.624;2023-10-09T01:11:29;13.50;99.90
62555;DHT22;48610;52.144;8.624;2023-10-09T01:14:31;13.60;99.90
62555;DHT22;48610;52.144;8.624;2023-10-09T01:17:36;13.60;99.90
62555;DHT22;48610;52.144;8.624;2023-10-09T01:20:37;13.60;99.90
62555;DHT22;48610;52.144;8.624;2023-10-09T01:23:46;13.70;99.90
62555;DHT22;48610;52.144;8.624;2023-10-09T01:27:02;13.90;99.90
62555;DHT22;48610;52.144;8.624;2023-10-09T01:30:06;13.90;99.90
62555;DHT22;48610;52.144;8.624;2023-10-09T01:33:08;13.90;99.90
62555;DHT22;48610;52.144;8.624;2023-10-09T01:36:28;13.90;99.90
62555;DHT22;48610;52.144;8.624;2023-10-09T01:39:32;13.90;99.90
62555;DHT22;48610;52.144;8.624;2023-10-09T01:42:40;14.00;99.90
62555;DHT22;48610;52.144;8.624;2023-10-09T01:45:46;14.00;99.90
62555;DHT22;48610;52.144;8.624;2023-10-09T01:48:47;13.90;99.90
62555;DHT22;48610;52.144;8.624;2023-10-09T01:51:48;13.80;99.90
62555;DHT22;48610;52.144;8.624;2023-10-09T01:54:51;13.70;99.90
62555;DHT22;48610;52.144;8.624;2023-10-09T01:57:53;13.40;99.90
62555;DHT22;48610;52.144;8.624;2023-10-09T02:00:54;13.50;99.90
62555;DHT22;48610;52.144;8.624;2023-10-09T02:04:02;13.60;99.90
62555;DHT22;48610;52.144;8.624;2023-10-09T02:07:09;13.70;99.90
62555;DHT22;48610;52.144;8.624;2023-10-09T02:10:10;13.70;99.90
62555;DHT22;48610;52.144;8.624;2023-10-09T02:13:22;13.80;99.90
62555;DHT22;48610;52.144;8.624;2023-10-09T02:16:35;13.80;99.90
62555;DHT22;48610;52.144;8.624;2023-10-09T02:19:42;13.70;99.90
62555;DHT22;48610;52.144;8.624;2023-10-09T02:22:43;13.70;99.90
62555;DHT22;48610;52.144;8.624;2023-10-09T02:25:43;13.80;99.90
62555;DHT22;48610;52.144;8.624;2023-10-09T02:28:44;13.80;99.90
62555;DHT22;48610;52.144;8.624;2023-10-09T02:31:49;13.80;99.90
62555;DHT22;48610;52.144;8.624;2023-10-09T02:34:53;13.80;99.90
62555;DHT22;48610;52.144;8.624;2023-10-09T02:37:54;13.80;99.90
62555;DHT22;48610;52.144;8.624;2023-10-09T02:40:58;13.70;99.90
62555;DHT22;48610;52.144;8.624;2023-10-09T02:44:04;13.70;99.90
62555;DHT22;48610;52.144;8.624;2023-10-09T02:47:14;13.80;99.90
62555;DHT22;48610;52.144;8.624;2023-10-09T02:50:24;13.90;99.90
62555;DHT22;48610;52.144;8.624;2023-10-09T02:53:28;13.90;99.90
62555;DHT22;48610;52.144;8.624;2023-10-09T02:56:36;14.00;99.90
62555;DHT22;48610;52.144;8.624;2023-10-09T02:59:38;14.00;99.90
62555;DHT22;48610;52.144;8.624;2023-10-09T03:02:41;14.00;99.90
62555;DHT22;48610;52.144;8.624;2023-10-09T03:05:42;14.00;99.90
62555;DHT22;48610;52.144;8.624;2023-10-09T03:08:44;14.10;99.90
62555;DHT22;48610;52.144;8.624;2023-10-09T03:11:49;14.00;99.90
62555;DHT22;48610;52.144;8.624;2023-10-09T03:14:53;14.10;99.90
62555;DHT22;48610;52.144;8.624;2023-10-09T03:18:02;14.10;99.90
62555;DHT22;48610;52.144;8.624;2023-10-09T03:21:04;14.20;99.90
62555;DHT22;48610;52.144;8.624;2023-10-09T03:24:07;14.20;99.90
62555;DHT22;48610;52.144;8.624;2023-10-09T03:27:08;14.20;99.90
62555;DHT22;48610;52.144;8.624;2023-10-09T03:30:09;14.30;99.90
62555;DHT22;48610;52.144;8.624;2023-10-09T03:33:10;14.10;99.90
62555;DHT22;48610;52.144;8.624;2023-10-09T03:36:11;14.10;99.90
62555;DHT22;48610;52.144;8.624;2023-10-09T03:39:12;14.10;99.90
62555;DHT22;48610;52.144;8.624;2023-10-09T03:42:25;14.30;99.90
62555;DHT22;48610;52.144;8.624;2023-10-09T03:45:25;14.30;99.90
62555;DHT22;48610;52.144;8.624;2023-10-09T03:48:27;14.40;99.90
62555;DHT22;48610;52.144;8.624;2023-10-09T03:51:32;14.40;99.90
62555;DHT22;48610;52.144;8.624;2023-10-09T03:54:33;14.40;99.90
62555;DHT22;48610;52.144;8.624;2023-10-09T03:57:35;14.50;99.90
62555;DHT22;48610;52.144;8.624;2023-10-09T04:00:36;14.60;99.90
62555;DHT22;48610;52.144;8.624;2023-10-09T04:03:45;14.60;99.90
62555;DHT22;48610;52.144;8.624;2023-10-09T04:06:46;14.60;99.90
62555;DHT22;48610;52.144;8.624;2023-10-09T04:09:47;14.80;99.90
62555;DHT22;48610;52.144;8.624;2023-10-09T04:13:10;14.80;99.90
62555;DHT22;48610;52.144;8.624;2023-10-09T04:16:17;14.80;99.90
62555;DHT22;48610;52.144;8.624;2023-10-09T04:19:34;14.80;99.90
62555;DHT22;48610;52.144;8.624;2023-10-09T04:22:48;14.90;99.90
62555;DHT22;48610;52.144;8.624;2023-10-09T04:25:52;15.00;99.90
62555;DHT22;48610;52.144;8.624;2023-10-09T04:28:53;15.00;99.90
62555;DHT22;48610;52.144;8.624;2023-10-09T04:31:55;14.90;99.90
62555;DHT22;48610;52.144;8.624;2023-10-09T04:34:56;14.90;99.90
62555;DHT22;48610;52.144;8.624;2023-10-09T04:38:17;14.90;99.90
62555;DHT22;48610;52.144;8.624;2023-10-09T04:41:17;14.90;99.90
62555;DHT22;48610;52.144;8.624;2023-10-09T04:44:27;14.80;99.90
62555;DHT22;48610;52.144;8.624;2023-10-09T04:47:37;14.80;99.90
62555;DHT22;48610;52.144;8.624;2023-10-09T04:50:50;14.90;99.90
62555;DHT22;48610;52.144;8.624;2023-10-09T04:54:09;15.00;99.90
62555;DHT22;48610;52.144;8.624;2023-10-09T05:00:46;15.20;99.90
62555;DHT22;48610;52.144;8.624;2023-10-09T05:04:04;15.20;99.90
62555;DHT22;48610;52.144;8.624;2023-10-09T05:07:24;15.30;99.90
62555;DHT22;48610;52.144;8.624;2023-10-09T05:10:37;15.20;99.90
62555;DHT22;48610;52.144;8.624;2023-10-09T05:13:54;15.10;99.90
62555;DHT22;48610;52.144;8.624;2023-10-09T05:17:11;15.10;99.90
62555;DHT22;48610;52.144;8.624;2023-10-09T05:20:16;15.00;99.90
62555;DHT22;48610;52.144;8.624;2023-10-09T05:23:22;15.00;99.90
62555;DHT22;48610;52.144;8.624;2023-10-09T05:26:26;15.00;99.90
62555;DHT22;48610;52.144;8.624;2023-10-09T05:29:37;14.80;99.90
62555;DHT22;48610;52.144;8.624;2023-10-09T05:32:50;14.80;99.90
62555;DHT22;48610;52.144;8.624;2023-10-09T05:35:55;14.90;99.90
62555;DHT22;48610;52.144;8.624;2023-10-09T05:39:14;14.80;99.90
62555;DHT22;48610;52.144;8.624;2023-10-09T05:42:18;14.90;99.90
62555;DHT22;48610;52.144;8.624;2023-10-09T05:45:18;14.90;99.90
62555;DHT22;48610;52.144;8.624;2023-10-09T05:48:37;14.90;99.90
62555;DHT22;48610;52.144;8.624;2023-10-09T05:51:38;14.90;99.90
62555;DHT22;48610;52.144;8.624;2023-10-09T05:54:42;14.90;99.90
62555;DHT22;48610;52.144;8.624;2023-10-09T05:58:14;14.90;99.90
62555;DHT22;48610;52.144;8.624;2023-10-09T06:01:33;14.90;99.90
62555;DHT22;48610;52.144;8.624;2023-10-09T06:04:52;15.10;99.90
62555;DHT22;48610;52.144;8.624;2023-10-09T06:07:57;15.20;99.90
62555;DHT22;48610;52.144;8.624;2023-10-09T06:11:12;15.30;99.90
62555;DHT22;48610;52.144;8.624;2023-10-09T06:14:45;15.40;99.90
62555;DHT22;48610;52.144;8.624;2023-10-09T06:17:50;15.40;99.90
62555;DHT22;48610;52.144;8.624;2023-10-09T06:20:51;15.50;99.90
62555;DHT22;48610;52.144;8.624;2023-10-09T06:24:10;15.60;99.90
62555;DHT22;48610;52.144;8.624;2023-10-09T06:27:16;15.60;99.90
62555;DHT22;48610;52.144;8.624;2023-10-09T06:30:34;15.60;99.90
62555;DHT22;48610;52.144;8.624;2023-10-09T06:33:36;15.60;99.90
62555;DHT22;48610;52.144;8.624;2023-10-09T06:36:56;15.60;99.90
62555;DHT22;48610;52.144;8.624;2023-10-09T06:40:04;15.70;99.90
62555;DHT22;48610;52.144;8.624;2023-10-09T06:43:30;15.70;99.90
62555;DHT22;48610;52.144;8.624;2023-10-09T06:46:32;15.80;99.90
62555;DHT22;48610;52.144;8.624;2023-10-09T06:49:52;15.80;99.90
62555;DHT22;48610;52.144;8.624;2023-10-09T06:53:29;15.70;99.90
62555;DHT22;48610;52.144;8.624;2023-10-09T06:56:49;15.80;99.90
62555;DHT22;48610;52.144;8.624;2023-10-09T06:59:53;15.70;99.90
62555;DHT22;48610;52.144;8.624;2023-10-09T07:03:12;15.70;99.90
62555;DHT22;48610;52.144;8.624;2023-10-09T07:06:12;15.70;99.90
62555;DHT22;48610;52.144;8.624;2023-10-09T07:09:25;15.70;99.90
62555;DHT22;48610;52.144;8.624;2023-10-09T07:12:42;15.60;99.90
62555;DHT22;48610;52.144;8.624;2023-10-09T07:15:44;15.70;99.90
62555;DHT22;48610;52.144;8.624;2023-10-09T07:19:07;15.60;99.90
62555;DHT22;48610;52.144;8.624;2023-10-09T07:22:20;15.60;99.90
62555;DHT22;48610;52.144;8.624;2023-10-09T07:25:21;15.70;99.90
62555;DHT22;48610;52.144;8.624;2023-10-09T07:28:40;15.80;99.90
62555;DHT22;48610;52.144;8.624;2023-10-09T07:31:49;15.80;99.90
62555;DHT22;48610;52.144;8.624;2023-10-09T07:34:57;15.80;99.90
62555;DHT22;48610;52.144;8.624;2023-10-09T07:37:59;15.80;99.90
62555;DHT22;48610;52.144;8.624;2023-10-09T07:41:04;15.80;99.90
62555;DHT22;48610;52.144;8.624;2023-10-09T07:44:07;15.90;99.90
62555;DHT22;48610;52.144;8.624;2023-10-09T07:47:19;15.80;99.90
62555;DHT22;48610;52.144;8.624;2023-10-09T07:50:37;15.90;99.90
62555;DHT22;48610;52.144;8.624;2023-10-09T07:53:52;16.00;99.90
62555;DHT22;48610;52.144;8.624;2023-10-09T07:57:07;16.00;99.90
62555;DHT22;48610;52.144;8.624;2023-10-09T08:00:16;15.90;99.90
62555;DHT22;48610;52.144;8.624;2023-10-09T08:03:36;15.90;99.90
62555;DHT22;48610;52.144;8.624;2023-10-09T08:06:38;15.90;99.90
62555;DHT22;48610;52.144;8.624;2023-10-09T08:09:39;15.80;99.90
62555;DHT22;48610;52.144;8.624;2023-10-09T08:13:11;15.80;99.90
62555;DHT22;48610;52.144;8.624;2023-10-09T08:16:40;15.80;99.90
62555;DHT22;48610;52.144;8.624;2023-10-09T08:19:45;15.70;99.90
62555;DHT22;48610;52.144;8.624;2023-10-09T08:22:54;15.80;99.90
62555;DHT22;48610;52.144;8.624;2023-10-09T08:26:02;15.90;99.90
62555;DHT22;48610;52.144;8.624;2023-10-09T08:29:17;15.90;99.90
62555;DHT22;48610;52.144;8.624;2023-10-09T08:32:18;15.80;99.90
62555;DHT22;48610;52.144;8.624;2023-10-09T08:35:29;15.90;99.90
62555;DHT22;48610;52.144;8.624;2023-10-09T08:38:30;15.90;99.90
62555;DHT22;48610;52.144;8.624;2023-10-09T08:41:34;15.90;99.90
62555;DHT22;48610;52.144;8.624;2023-10-09T08:44:35;15.90;99.90
62555;DHT22;48610;52.144;8.624;2023-10-09T08:47:37;15.80;99.90
62555;DHT22;48610;52.144;8.624;2023-10-09T08:50:37;15.70;99.90
62555;DHT22;48610;52.144;8.624;2023-10-09T08:53:39;15.70;99.90
62555;DHT22;48610;52.144;8.624;2023-10-09T08:56:45;15.70;99.90
62555;DHT22;48610;52.144;8.624;2023-10-09T08:59:52;15.90;99.90
62555;DHT22;48610;52.144;8.624;2023-10-09T09:02:53;15.80;99.90
62555;DHT22;48610;52.144;8.624;2023-10-09T09:06:01;15.80;99.90
62555;DHT22;48610;52.144;8.624;2023-10-09T09:09:10;15.90;99.90
62555;DHT22;48610;52.144;8.624;2023-10-09T09:12:14;15.90;99.90
62555;DHT22;48610;52.144;8.624;2023-10-09T09:15:16;15.90;99.90
62555;DHT22;48610;52.144;8.624;2023-10-09T09:18:21;16.00;99.90
62555;DHT22;48610;52.144;8.624;2023-10-09T09:21:22;16.10;99.90
62555;DHT22;48610;52.144;8.624;2023-10-09T09:24:23;16.10;99.90
62555;DHT22;48610;52.144;8.624;2023-10-09T09:27:23;16.20;99.90
62555;DHT22;48610;52.144;8.624;2023-10-09T09:30:43;16.20;99.90
62555;DHT22;48610;52.144;8.624;2023-10-09T09:33:44;16.20;99.90
62555;DHT22;48610;52.144;8.624;2023-10-09T09:36:55;16.20;99.90
62555;DHT22;48610;52.144;8.624;2023-10-09T09:40:00;16.30;99.90
62555;DHT22;48610;52.144;8.624;2023-10-09T09:43:02;16.40;99.90
62555;DHT22;48610;52.144;8.624;2023-10-09T09:46:07;16.30;99.90
62555;DHT22;48610;52.144;8.624;2023-10-09T09:49:09;16.30;99.90
62555;DHT22;48610;52.144;8.624;2023-10-09T09:52:17;16.40;99.90
62555;DHT22;48610;52.144;8.624;2023-10-09T09:55:18;16.50;99.90
62555;DHT22;48610;52.144;8.624;2023-10-09T09:58:23;16.50;99.90
62555;DHT22;48610;52.144;8.624;2023-10-09T10:01:30;16.50;99.90
62555;DHT22;48610;52.144;8.624;2023-10-09T10:04:34;16.40;99.90
62555;DHT22;48610;52.144;8.624;2023-10-09T10:07:37;16.40;99.90
62555;DHT22;48610;52.144;8.624;2023-10-09T10:10:43;16.40;99.90
62555;DHT22;48610;52.144;8.624;2023-10-09T10:13:55;16.40;99.90
62555;DHT22;48610;52.144;8.624;2023-10-09T10:20:06;16.50;99.90
62555;DHT22;48610;52.144;8.624;2023-10-09T10:23:17;16.40;99.90
62555;DHT22;48610;52.144;8.624;2023-10-09T10:26:21;16.50;99.90
62555;DHT22;48610;52.144;8.624;2023-10-09T10:29:26;16.50;99.90
62555;DHT22;48610;52.144;8.624;2023-10-09T10:35:52;16.60;99.90
62555;DHT22;48610;52.144;8.624;2023-10-09T10:39:04;16.60;99.90
62555;DHT22;48610;52.144;8.624;2023-10-09T10:42:25;16.60;99.90
62555;DHT22;48610;52.144;8.624;2023-10-09T10:45:36;16.60;99.90
62555;DHT22;48610;52.144;8.624;2023-10-09T10:48:44;16.60;99.90
62555;DHT22;48610;52.144;8.624;2023-10-09T10:51:49;16.60;99.90
62555;DHT22;48610;52.144;8.624;2023-10-09T10:54:50;16.60;99.90
62555;DHT22;48610;52.144;8.624;2023-10-09T10:58:18;16.70;99.90
62555;DHT22;48610;52.144;8.624;2023-10-09T11:01:47;16.70;99.90
62555;DHT22;48610;52.144;8.624;2023-10-09T11:04:53;16.60;99.90
62555;DHT22;48610;52.144;8.624;2023-10-09T11:08:14;16.60;99.90
62555;DHT22;48610;52.144;8.624;2023-10-09T11:11:15;16.60;99.90
62555;DHT22;48610;52.144;8.624;2023-10-09T11:14:15;16.50;99.90
62555;DHT22;48610;52.144;8.624;2023-10-09T11:17:18;16.40;99.90
62555;DHT22;48610;52.144;8.624;2023-10-09T11:20:25;16.40;99.90
62555;DHT22;48610;52.144;8.624;2023-10-09T11:23:32;16.30;99.90
62555;DHT22;48610;52.144;8.624;2023-10-09T11:26:53;16.40;99.90
62555;DHT22;48610;52.144;8.624;2023-10-09T11:29:57;16.40;99.90
62555;DHT22;48610;52.144;8.624;2023-10-09T11:33:06;16.40;99.90
62555;DHT22;48610;52.144;8.624;2023-10-09T11:36:18;16.30;99.90
62555;DHT22;48610;52.144;8.624;2023-10-09T11:39:35;16.40;99.90
62555;DHT22;48610;52.144;8.624;2023-10-09T11:42:36;16.40;99.90
62555;DHT22;48610;52.144;8.624;2023-10-09T11:45:49;16.40;99.90
62555;DHT22;48610;52.144;8.624;2023-10-09T11:49:07;16.60;99.90
62555;DHT22;48610;52.144;8.624;2023-10-09T11:52:19;16.60;99.90
62555;DHT22;48610;52.144;8.624;2023-10-09T11:55:32;16.70;99.90
62555;DHT22;48610;52.144;8.624;2023-10-09T11:58:33;16.70;99.90
62555;DHT22;48610;52.144;8.624;2023-10-09T12:01:35;16.80;99.90
62555;DHT22;48610;52.144;8.624;2023-10-09T12:04:38;16.80;99.90
62555;DHT22;48610;52.144;8.624;2023-10-09T12:07:46;16.70;99.90
62555;DHT22;48610;52.144;8.624;2023-10-09T12:10:46;16.70;99.90
62555;DHT22;48610;52.144;8.624;2023-10-09T12:13:49;16.70;99.90
62555;DHT22;48610;52.144;8.624;2023-10-09T12:16:49;16.80;99.90
62555;DHT22;48610;52.144;8.624;2023-10-09T12:19:50;16.80;99.90
62555;DHT22;48610;52.144;8.624;2023-10-09T12:22:51;16.90;99.90
62555;DHT22;48610;52.144;8.624;2023-10-09T12:25:52;16.90;99.90
62555;DHT22;48610;52.144;8.624;2023-10-09T12:28:58;17.00;99.90
62555;DHT22;48610;52.144;8.624;2023-10-09T12:31:59;17.00;99.90
62555;DHT22;48610;52.144;8.624;2023-10-09T12:34:59;17.10;99.90
62555;DHT22;48610;52.144;8.624;2023-10-09T12:38:00;17.10;99.90
62555;DHT22;48610;52.144;8.624;2023-10-09T12:41:05;17.10;99.90
62555;DHT22;48610;52.144;8.624;2023-10-09T12:44:19;17.00;99.90
62555;DHT22;48610;52.144;8.624;2023-10-09T12:47:20;17.10;99.90
62555;DHT22;48610;52.144;8.624;2023-10-09T12:50:21;17.10;99.90
62555;DHT22;48610;52.144;8.624;2023-10-09T12:53:28;17.20;99.90
62555;DHT22;48610;52.144;8.624;2023-10-09T12:56:29;17.20;99.90
62555;DHT22;48610;52.144;8.624;2023-10-09T12:59:33;17.10;99.90
62555;DHT22;48610;52.144;8.624;2023-10-09T13:02:35;17.10;99.90
62555;DHT22;48610;52.144;8.624;2023-10-09T13:05:35;17.10;99.90
62555;DHT22;48610;52.144;8.624;2023-10-09T13:08:37;17.10;99.90
62555;DHT22;48610;52.144;8.624;2023-10-09T13:11:42;17.10;99.90
62555;DHT22;48610;52.144;8.624;2023-10-09T13:14:43;17.10;99.90
62555;DHT22;48610;52.144;8.624;2023-10-09T13:17:43;17.00;99.90
62555;DHT22;48610;52.144;8.624;2023-10-09T13:20:44;17.10;99.90
62555;DHT22;48610;52.144;8.624;2023-10-09T13:23:46;17.10;99.90
62555;DHT22;48610;52.144;8.624;2023-10-09T13:26:54;17.20;99.90
62555;DHT22;48610;52.144;8.624;2023-10-09T13:29:58;17.20;99.90
62555;DHT22;48610;52.144;8.624;2023-10-09T13:33:05;17.30;99.90
62555;DHT22;48610;52.144;8.624;2023-10-09T13:36:06;17.30;99.90
62555;DHT22;48610;52.144;8.624;2023-10-09T13:39:16;17.30;99.90
62555;DHT22;48610;52.144;8.624;2023-10-09T13:42:24;17.20;99.90
62555;DHT22;48610;52.144;8.624;2023-10-09T13:45:27;17.30;99.90
62555;DHT22;48610;52.144;8.624;2023-10-09T13:48:27;17.40;99.90
62555;DHT22;48610;52.144;8.624;2023-10-09T13:51:28;17.40;99.90
62555;DHT22;48610;52.144;8.624;2023-10-09T13:54:29;17.40;99.90
62555;DHT22;48610;52.144;8.624;2023-10-09T13:57:33;17.30;99.90
62555;DHT22;48610;52.144;8.624;2023-10-09T14:00:34;17.40;99.90
62555;DHT22;48610;52.144;8.624;2023-10-09T14:03:42;17.40;99.90
62555;DHT22;48610;52.144;8.624;2023-10-09T14:06:47;17.40;99.90
62555;DHT22;48610;52.144;8.624;2023-10-09T14:09:48;17.50;99.90
62555;DHT22;48610;52.144;8.624;2023-10-09T14:13:07;17.50;99.90
62555;DHT22;48610;52.144;8.624;2023-10-09T14:16:12;17.50;99.90
62555;DHT22;48610;52.144;8.624;2023-10-09T14:19:24;17.30;99.90
62555;DHT22;48610;52.144;8.624;2023-10-09T14:22:24;17.50;99.90
62555;DHT22;48610;52.144;8.624;2023-10-09T14:25:25;17.50;99.90
62555;DHT22;48610;52.144;8.624;2023-10-09T14:28:30;17.60;99.90
62555;DHT22;48610;52.144;8.624;2023-10-09T14:31:30;17.50;99.90
62555;DHT22;48610;52.144;8.624;2023-10-09T14:34:31;17.60;99.90
62555;DHT22;48610;52.144;8.624;2023-10-09T14:37:37;17.60;99.90
62555;DHT22;48610;52.144;8.624;2023-10-09T14:40:46;17.70;99.90
62555;DHT22;48610;52.144;8.624;2023-10-09T14:43:46;17.80;99.90
62555;DHT22;48610;52.144;8.624;2023-10-09T14:46:48;17.80;99.90
62555;DHT22;48610;52.144;8.624;2023-10-09T14:49:49;17.90;99.90
62555;DHT22;48610;52.144;8.624;2023-10-09T14:52:50;17.90;99.90
62555;DHT22;48610;52.144;8.624;2023-10-09T14:55:55;18.00;99.90
62555;DHT22;48610;52.144;8.624;2023-10-09T14:58:59;18.10;99.90
62555;DHT22;48610;52.144;8.624;2023-10-09T15:02:00;18.20;99.90
62555;DHT22;48610;52.144;8.624;2023-10-09T15:05:01;18.20;99.90
62555;DHT22;48610;52.144;8.624;2023-10-09T15:08:04;18.20;99.90
62555;DHT22;48610;52.144;8.624;2023-10-09T15:11:11;18.30;99.90
62555;DHT22;48610;52.144;8.624;2023-10-09T15:14:11;18.30;99.90
62555;DHT22;48610;52.144;8.624;2023-10-09T15:17:14;18.40;99.90
62555;DHT22;48610;52.144;8.624;2023-10-09T15:20:16;18.40;99.90
62555;DHT22;48610;52.144;8.624;2023-10-09T15:23:17;18.30;99.90
62555;DHT22;48610;52.144;8.624;2023-10-09T15:26:20;18.20;99.90
62555;DHT22;48610;52.144;8.624;2023-10-09T15:29:21;18.10;99.90
62555;DHT22;48610;52.144;8.624;2023-10-09T15:32:23;18.10;99.90
62555;DHT22;48610;52.144;8.624;2023-10-09T15:35:27;18.10;99.90
62555;DHT22;48610;52.144;8.624;2023-10-09T15:38:29;18.00;99.90
62555;DHT22;48610;52.144;8.624;2023-10-09T15:41:29;18.00;99.90
62555;DHT22;48610;52.144;8.624;2023-10-09T15:44:30;18.00;99.90
62555;DHT22;48610;52.144;8.624;2023-10-09T15:47:34;18.00;99.90
62555;DHT22;48610;52.144;8.624;2023-10-09T15:50:37;18.00;99.90
62555;DHT22;48610;52.144;8.624;2023-10-09T15:53:38;18.00;99.90
62555;DHT22;48610;52.144;8.624;2023-10-09T15:56:39;18.10;99.90
62555;DHT22;48610;52.144;8.624;2023-10-09T15:59:42;18.20;99.90
62555;DHT22;48610;52.144;8.624;2023-10-09T16:02:51;18.10;99.90
62555;DHT22;48610;52.144;8.624;2023-10-09T16:05:53;18.20;99.90
62555;DHT22;48610;52.144;8.624;2023-10-09T16:08:54;18.00;99.90
62555;DHT22;48610;52.144;8.624;2023-10-09T16:11:54;18.10;99.90
62555;DHT22;48610;52.144;8.624;2023-10-09T16:14:55;18.10;99.90
62555;DHT22;48610;52.144;8.624;2023-10-09T16:17:56;18.00;99.90
62555;DHT22;48610;52.144;8.624;2023-10-09T16:20:59;18.00;99.90
62555;DHT22;48610;52.144;8.624;2023-10-09T16:24:04;18.00;99.90
62555;DHT22;48610;52.144;8.624;2023-10-09T16:27:10;18.00;99.90
62555;DHT22;48610;52.144;8.624;2023-10-09T16:30:12;18.00;99.90
62555;DHT22;48610;52.144;8.624;2023-10-09T16:33:18;18.00;99.90
62555;DHT22;48610;52.144;8.624;2023-10-09T16:36:19;17.90;99.90
62555;DHT22;48610;52.144;8.624;2023-10-09T16:39:21;17.90;99.90
62555;DHT22;48610;52.144;8.624;2023-10-09T16:42:25;17.90;99.90
62555;DHT22;48610;52.144;8.624;2023-10-09T16:45:25;17.80;99.90
62555;DHT22;48610;52.144;8.624;2023-10-09T16:48:26;17.80;99.90
62555;DHT22;48610;52.144;8.624;2023-10-09T16:51:30;17.80;99.90
62555;DHT22;48610;52.144;8.624;2023-10-09T16:54:31;17.90;99.90
62555;DHT22;48610;52.144;8.624;2023-10-09T16:57:40;17.90;99.90
62555;DHT22;48610;52.144;8.624;2023-10-09T17:00:41;17.80;99.90
62555;DHT22;48610;52.144;8.624;2023-10-09T17:03:47;17.90;99.90
62555;DHT22;48610;52.144;8.624;2023-10-09T17:06:54;17.80;99.90
62555;DHT22;48610;52.144;8.624;2023-10-09T17:09:58;17.80;99.90
62555;DHT22;48610;52.144;8.624;2023-10-09T17:12:59;17.80;99.90
62555;DHT22;48610;52.144;8.624;2023-10-09T17:16:01;17.90;99.90
62555;DHT22;48610;52.144;8.624;2023-10-09T17:19:03;17.90;99.90
62555;DHT22;48610;52.144;8.624;2023-10-09T17:22:06;17.90;99.90
62555;DHT22;48610;52.144;8.624;2023-10-09T17:25:11;17.90;99.90
62555;DHT22;48610;52.144;8.624;2023-10-09T17:28:13;17.90;99.90
62555;DHT22;48610;52.144;8.624;2023-10-09T17:31:20;17.90;99.90
62555;DHT22;48610;52.144;8.624;2023-10-09T17:34:23;17.90;99.90
62555;DHT22;48610;52.144;8.624;2023-10-09T17:37:27;17.90;99.90
62555;DHT22;48610;52.144;8.624;2023-10-09T17:40:27;17.80;99.90
62555;DHT22;48610;52.144;8.624;2023-10-09T17:43:28;17.80;99.90
62555;DHT22;48610;52.144;8.624;2023-10-09T17:46:31;17.80;99.90
62555;DHT22;48610;52.144;8.624;2023-10-09T17:49:32;17.80;99.90
62555;DHT22;48610;52.144;8.624;2023-10-09T17:52:32;17.80;99.90
62555;DHT22;48610;52.144;8.624;2023-10-09T17:55:37;17.60;99.90
62555;DHT22;48610;52.144;8.624;2023-10-09T17:58:38;17.70;99.90
62555;DHT22;48610;52.144;8.624;2023-10-09T18:01:39;17.70;99.90
62555;DHT22;48610;52.144;8.624;2023-10-09T18:04:39;17.80;99.90
62555;DHT22;48610;52.144;8.624;2023-10-09T18:07:42;17.70;99.90
62555;DHT22;48610;52.144;8.624;2023-10-09T18:10:44;17.70;99.90
62555;DHT22;48610;52.144;8.624;2023-10-09T18:13:45;17.70;99.90
62555;DHT22;48610;52.144;8.624;2023-10-09T18:16:46;17.70;99.90
62555;DHT22;48610;52.144;8.624;2023-10-09T18:19:48;17.70;99.90
62555;DHT22;48610;52.144;8.624;2023-10-09T18:22:50;17.70;99.90
62555;DHT22;48610;52.144;8.624;2023-10-09T18:25:56;17.70;99.90
62555;DHT22;48610;52.144;8.624;2023-10-09T18:28:58;17.70;99.90
62555;DHT22;48610;52.144;8.624;2023-10-09T18:31:59;17.60;99.90
62555;DHT22;48610;52.144;8.624;2023-10-09T18:35:00;17.70;99.90
62555;DHT22;48610;52.144;8.624;2023-10-09T18:38:01;17.70;99.90
62555;DHT22;48610;52.144;8.624;2023-10-09T18:41:08;17.80;99.90
62555;DHT22;48610;52.144;8.624;2023-10-09T18:44:11;17.80;99.90
62555;DHT22;48610;52.144;8.624;2023-10-09T18:47:11;17.80;99.90
62555;DHT22;48610;52.144;8.624;2023-10-09T18:50:15;17.80;99.90
62555;DHT22;48610;52.144;8.624;2023-10-09T18:53:16;17.90;99.90
62555;DHT22;48610;52.144;8.624;2023-10-09T18:56:17;17.90;99.90
62555;DHT22;48610;52.144;8.624;2023-10-09T18:59:22;17.90;99.90
62555;DHT22;48610;52.144;8.624;2023-10-09T19:02:23;17.90;99.90
62555;DHT22;48610;52.144;8.624;2023-10-09T19:05:26;17.90;99.90
62555;DHT22;48610;52.144;8.624;2023-10-09T19:08:27;17.90;99.90
62555;DHT22;48610;52.144;8.624;2023-10-09T19:11:35;17.80;99.90
62555;DHT22;48610;52.144;8.624;2023-10-09T19:14:39;17.80;99.90
62555;DHT22;48610;52.144;8.624;2023-10-09T19:17:40;17.80;99.90
62555;DHT22;48610;52.144;8.624;2023-10-09T19:20:41;17.80;99.90
62555;DHT22;48610;52.144;8.624;2023-10-09T19:23:43;17.90;99.90
62555;DHT22;48610;52.144;8.624;2023-10-09T19:26:45;17.90;99.90
62555;DHT22;48610;52.144;8.624;2023-10-09T19:29:46;17.90;99.90
62555;DHT22;48610;52.144;8.624;2023-10-09T19:32:47;17.90;99.90
62555;DHT22;48610;52.144;8.624;2023-10-09T19:35:48;18.00;99.90
62555;DHT22;48610;52.144;8.624;2023-10-09T19:38:49;18.00;99.90
62555;DHT22;48610;52.144;8.624;2023-10-09T19:41:52;18.10;99.90
62555;DHT22;48610;52.144;8.624;2023-10-09T19:44:53;18.10;99.90